More Magic — 2DWJ4 — position and weather

sailwx.info

Track history (hours):
 
Tides and Currents Weather Stations Pressure Air Temp Water Temp Dewpoint Dewpoint Depression Visibility Wind Speed Wind Dir Waves Ship Positions

More Magic

Last reported at 2016-Apr-24 19:28 UTC. Time now 2016-Apr-28 21:55 UTC.
Position N 17°01' W 061°47'.

Length 20 m.

Type: Sailing vessel. MMSI: 235082545.

Date/timePositionNaut miles runAvg speedWind from/ knotsBaromVisibWave heightAir tempDewpointWater temp
2016-Apr-24 19:28N 17°01' W 061°47'2 2.3
2016-Apr-24 18:33N 16°60' W 061°45'6 6.2
2016-Apr-24 17:33N 17°04' W 061°40'1 0.0
2016-Apr-23 20:28N 17°05' W 061°40'0 0.0
2016-Apr-23 19:31N 17°05' W 061°40'0 0.0
2016-Apr-23 18:31N 17°05' W 061°40'0 0.0
2016-Apr-21 22:19N 17°05' W 061°40'1 1.8
2016-Apr-21 21:33N 17°03' W 061°40'5 4.5
2016-Apr-21 20:34N 17°00' W 061°43'  
2016-Apr-15 16:29N 17°01' W 061°47'2 2.5
2016-Apr-15 15:33N 16°60' W 061°49'2 1.8
2016-Apr-15 14:32N 17°00' W 061°47'1 0.0
2016-Apr-14 21:31N 17°01' W 061°47'0 0.0
2016-Apr-14 20:31N 17°01' W 061°47'0 0.0
2016-Apr-14 19:31N 17°01' W 061°47'  
Track history (hours):
 
Tides and Currents Weather Stations Pressure Air Temp Water Temp Dewpoint Dewpoint Depression Visibility Wind Speed Wind Dir Waves Ship Positions

More Magic

Last reported at 2016-Apr-24 19:28 UTC. Time now 2016-Apr-28 21:55 UTC.
Position N 17°01' W 061°47'.

Length 20 m.

Type: Sailing vessel. MMSI: 235082545.

Date/timePositionNaut miles runAvg speedWind from/ knotsBaromVisibWave heightAir tempDewpointWater temp
2016-Apr-24 19:28N 17°01' W 061°47'2 2.3
2016-Apr-24 18:33N 16°60' W 061°45'6 6.2
2016-Apr-24 17:33N 17°04' W 061°40'1 0.0
2016-Apr-23 20:28N 17°05' W 061°40'0 0.0
2016-Apr-23 19:31N 17°05' W 061°40'0 0.0
2016-Apr-23 18:31N 17°05' W 061°40'0 0.0
2016-Apr-21 22:19N 17°05' W 061°40'1 1.8
2016-Apr-21 21:33N 17°03' W 061°40'5 4.5
2016-Apr-21 20:34N 17°00' W 061°43'  
2016-Apr-15 16:29N 17°01' W 061°47'2 2.5
2016-Apr-15 15:33N 16°60' W 061°49'2 1.8
2016-Apr-15 14:32N 17°00' W 061°47'1 0.0
2016-Apr-14 21:31N 17°01' W 061°47'0 0.0
2016-Apr-14 20:31N 17°01' W 061°47'0 0.0
2016-Apr-14 19:31N 17°01' W 061°47'  

Dump ship's entire track history